LFPGGOOY

Guest
Details From LFPG - Paris Charles De Gaulle
To GOOY - Dakar Leopold Sedar Senghor Intl
Flight Number -
Tags Generated
Created
Modified
Stats Distance 2,284 nm / 4,230 km
Max Altitude 0 ft / 0 m
Waypoints 8
Social Downloads 3
Likes 0
Share VATSIM

Download

Looking for another format? Having issues loading an existing format? Contact us
Advertisement - Login to hide

Notes

Generated

Route

LFPG CGC ARBIN PARKA KORNO NH YF022 GOOY

ID Type Via Altitude Latitude Longitude Leg Dist Tot Dist Heading (true) Name
O LFPG APT - 0 ft / 0 m 49.02472˚ 2.52489˚ - 0 nm - -
CGC NDB - 0 ft / 0 m 45.66931˚ -0.30619˚ 232 nm 232 nm 211° / 209° COGNAC NDB
ARBIN FIX - 0 ft / 0 m 42.67442˚ -2.60825˚ 205 nm 437 nm 210° / 208° -
PARKA FIX - 0 ft / 0 m 39.00000˚ -5.14988˚ 249 nm 686 nm 208° / 207° -
KORNO FIX - 0 ft / 0 m 35.83333˚ -7.41667˚ 218 nm 905 nm 210° / 209° -
NH NDB - 0 ft / 0 m 18.07925˚ -15.96319˚ 1158 nm 2064 nm 205° / 201° NOUAKCHOTT NDB
YF022 FIX - 0 ft / 0 m 14.77687˚ -17.48484˚ 216 nm 2281 nm 204° / 204° -
O GOOY APT - 0 ft / 0 m 14.73171˚ -17.50427˚ 2 nm 2283 nm 203° / 203° -

Altitude Profile

Advertisement - Login to hide

Weather


0- 5 10 15 20 25 30 35+ Temperature / ° C

Clouds and Precipitation
Forecast for 2017-12-14 18:00 UTC. Updated 9 minutes ago

Ground ~20,000 ft ~40,000 ft Winds

LFPG

Details ICAO LFPG (CDG)
Name Paris Charles De Gaulle
Region France
Timezone Europe/Paris (UTC+1.0)
Stats Elevation 392 ft / 119 m (AMSL)
Location 49.009742° 2.562619°
Runways 4
Magnetic Variation 0.641° E

METAR

LFPG 141300Z 23012KT 9999 FEW020 BKN023 07/04 Q0997 TEMPO 2000 TSRAGS SCT011CB BKN013

Decode

TAF

TAF LFPG 141100Z 1412/1518 25020G35KT 9999 BKN030 PROB40 TEMPO 1412/1417 3000 TSRA SCT011CB BKN013 PROB30 TEMPO 1412/1415 2000 TSRAGS BECMG 1419/1421 25015G25KT PROB40 TEMPO 1502/1504 3000 SHRA SCT015TCU BKN020 BECMG 1505/1507 25010KT PROB40 TEMPO 1510/1515 2000 TSRAGS SCT010CB BKN012 TX07/1412Z TN03/1505Z

Decode

Departure Runways

ID Width Length Bearing (true) Bearing (mag) Surface Threshold Offset Overrun Length
08L 148 ft / 45 m 14,039 ft / 4,279 m 85.37° 84.73° Asphalt 0 ft / 0 m 0 ft / 0 m
08R 197 ft / 60 m 8,797 ft / 2,681 m 85.39° 84.75° Asphalt 0 ft / 0 m 0 ft / 0 m
09L 197 ft / 60 m 8,835 ft / 2,693 m 85.39° 84.75° Asphalt 0 ft / 0 m 0 ft / 0 m
09R 148 ft / 45 m 13,744 ft / 4,189 m 85.38° 84.74° Asphalt 0 ft / 0 m 0 ft / 0 m
26L 197 ft / 60 m 8,797 ft / 2,681 m 265.41° 264.77° Asphalt 0 ft / 0 m 0 ft / 0 m
26R 148 ft / 45 m 14,039 ft / 4,279 m 265.41° 264.77° Asphalt 1,893 ft / 577 m 0 ft / 0 m
27L 148 ft / 45 m 13,744 ft / 4,189 m 265.42° 264.78° Asphalt 1,969 ft / 600 m 0 ft / 0 m
27R 197 ft / 60 m 8,835 ft / 2,693 m 265.41° 264.77° Asphalt 0 ft / 0 m 0 ft / 0 m

GOOY

Details ICAO GOOY (DKR)
Name Dakar Leopold Sedar Senghor Intl
Region Senegal
Timezone Africa/Dakar (UTC+0.0)
Stats Elevation 85 ft / 26 m (AMSL)
Location 14.739711° -17.490226°
Runways 2
Magnetic Variation 7.347° W

METAR

GOOY 141300Z 04012KT CAVOK 24/08 Q1016

Decode

TAF

TAF GOOY 141130Z 1412/1518 04015KT 8000 NSC= TAF GBYD 141130Z 1412/1518 04008KT CAVOK

Decode

Destination Runways

ID Width Length Bearing (true) Bearing (mag) Surface Threshold Offset Overrun Length
03 98 ft / 30 m 4,921 ft / 1,500 m 22.31° 29.66° Asphalt 0 ft / 0 m 98 ft / 30 m
18 148 ft / 45 m 11,511 ft / 3,509 m 172.57° 179.92° Asphalt 525 ft / 160 m 197 ft / 60 m
21 98 ft / 30 m 4,921 ft / 1,500 m 202.31° 209.66° Asphalt 0 ft / 0 m 1,590 ft / 485 m
36 148 ft / 45 m 11,511 ft / 3,509 m 352.57° 359.92° Asphalt 0 ft / 0 m 197 ft / 60 m

Approach Navaids

Runway Type Ident Frequency Range Bearing (true) Bearing (mag) Slope Elevation
36 Localiser YF 110.30 MHz 18 nm / 33 km 352.33° 359.67° - 65 ft / 20 m (AMSL)
36 Glidescope YF 110.30 MHz 10 nm / 19 km 352.57° 359.92° 3.01° 73 ft / 22 m (AMSL)
36 DME YF 110.30 MHz 18 nm / 33 km - - - 73 ft / 22 m (AMSL)

Popular Alternatives